sensor_id;sensor_type;location;lat;lon;timestamp;pressure;altitude;pressure_sealevel;temperature;humidity
66681;BME280;73718;51.366;12.350;2023-11-21T00:01:56;99621.56;;;6.11;100.00
66681;BME280;73718;51.366;12.350;2023-11-21T00:04:22;99616.34;;;6.08;100.00
66681;BME280;73718;51.366;12.350;2023-11-21T00:06:47;99618.94;;;6.05;100.00
66681;BME280;73718;51.366;12.350;2023-11-21T00:09:13;99612.91;;;6.00;100.00
66681;BME280;73718;51.366;12.350;2023-11-21T00:11:41;99626.72;;;6.03;100.00
66681;BME280;73718;51.366;12.350;2023-11-21T00:14:06;99620.66;;;6.06;100.00
66681;BME280;73718;51.366;12.350;2023-11-21T00:16:33;99627.59;;;6.12;100.00
66681;BME280;73718;51.366;12.350;2023-11-21T00:18:59;99631.91;;;6.14;100.00
66681;BME280;73718;51.366;12.350;2023-11-21T00:21:24;99630.19;;;6.13;100.00
66681;BME280;73718;51.366;12.350;2023-11-21T00:23:50;99631.03;;;6.14;100.00
66681;BME280;73718;51.366;12.350;2023-11-21T00:26:15;99633.66;;;6.15;100.00
66681;BME280;73718;51.366;12.350;2023-11-21T00:28:40;99631.91;;;6.14;100.00
66681;BME280;73718;51.366;12.350;2023-11-21T00:31:06;99637.13;;;6.11;100.00
66681;BME280;73718;51.366;12.350;2023-11-21T00:33:32;99637.97;;;6.08;100.00
66681;BME280;73718;51.366;12.350;2023-11-21T00:35:57;99637.09;;;6.06;100.00
66681;BME280;73718;51.366;12.350;2023-11-21T00:38:23;99638.81;;;6.04;100.00
66681;BME280;73718;51.366;12.350;2023-11-21T00:40:48;99642.28;;;6.05;100.00
66681;BME280;73718;51.366;12.350;2023-11-21T00:43:13;99647.47;;;6.02;100.00
66681;BME280;73718;51.366;12.350;2023-11-21T00:45:39;99645.75;;;5.99;100.00
66681;BME280;73718;51.366;12.350;2023-11-21T00:48:05;99644.00;;;5.98;100.00
66681;BME280;73718;51.366;12.350;2023-11-21T00:50:31;99644.88;;;6.00;100.00
66681;BME280;73718;51.366;12.350;2023-11-21T00:52:56;99645.75;;;5.99;100.00
66681;BME280;73718;51.366;12.350;2023-11-21T00:55:22;99651.78;;;5.98;100.00
66681;BME280;73718;51.366;12.350;2023-11-21T00:57:47;99644.88;;;5.97;100.00
66681;BME280;73718;51.366;12.350;2023-11-21T01:00:13;99654.38;;;5.97;100.00
66681;BME280;73718;51.366;12.350;2023-11-21T01:02:43;99645.72;;;5.96;100.00
66681;BME280;73718;51.366;12.350;2023-11-21T01:05:10;99658.69;;;5.95;100.00
66681;BME280;73718;51.366;12.350;2023-11-21T01:07:36;99660.41;;;5.94;100.00
66681;BME280;73718;51.366;12.350;2023-11-21T01:10:02;99656.94;;;5.94;100.00
66681;BME280;73718;51.366;12.350;2023-11-21T01:12:30;99657.84;;;5.96;100.00
66681;BME280;73718;51.366;12.350;2023-11-21T01:14:56;99664.75;;;6.00;100.00
66681;BME280;73718;51.366;12.350;2023-11-21T01:17:22;99652.66;;;6.05;100.00
66681;BME280;73718;51.366;12.350;2023-11-21T01:19:48;99669.97;;;6.12;100.00
66681;BME280;73718;51.366;12.350;2023-11-21T01:22:13;99664.78;;;6.18;100.00
66681;BME280;73718;51.366;12.350;2023-11-21T01:24:39;99660.47;;;6.23;100.00
66681;BME280;73718;51.366;12.350;2023-11-21T01:27:04;99669.09;;;6.28;100.00
66681;BME280;73718;51.366;12.350;2023-11-21T01:29:30;99674.31;;;6.30;100.00
66681;BME280;73718;51.366;12.350;2023-11-21T01:31:55;99669.09;;;6.33;100.00
66681;BME280;73718;51.366;12.350;2023-11-21T01:34:22;99676.91;;;6.34;100.00
66681;BME280;73718;51.366;12.350;2023-11-21T01:36:48;99670.84;;;6.35;100.00
66681;BME280;73718;51.366;12.350;2023-11-21T01:39:14;99679.50;;;6.38;100.00
66681;BME280;73718;51.366;12.350;2023-11-21T01:41:41;99670.88;;;6.42;100.00
66681;BME280;73718;51.366;12.350;2023-11-21T01:44:09;99676.91;;;6.48;100.00
66681;BME280;73718;51.366;12.350;2023-11-21T01:46:35;99677.78;;;6.47;100.00
66681;BME280;73718;51.366;12.350;2023-11-21T01:49:00;99679.50;;;6.48;100.00
66681;BME280;73718;51.366;12.350;2023-11-21T01:51:26;99677.75;;;6.52;100.00
66681;BME280;73718;51.366;12.350;2023-11-21T01:53:52;99685.56;;;6.56;100.00
66681;BME280;73718;51.366;12.350;2023-11-21T01:56:17;99683.81;;;6.60;100.00
66681;BME280;73718;51.366;12.350;2023-11-21T01:58:43;99685.56;;;6.63;100.00
66681;BME280;73718;51.366;12.350;2023-11-21T02:01:09;99686.41;;;6.66;100.00
66681;BME280;73718;51.366;12.350;2023-11-21T02:03:35;99692.50;;;6.68;100.00
66681;BME280;73718;51.366;12.350;2023-11-21T02:06:01;99695.06;;;6.70;100.00
66681;BME280;73718;51.366;12.350;2023-11-21T02:08:26;99694.19;;;6.71;100.00
66681;BME280;73718;51.366;12.350;2023-11-21T02:10:52;99702.00;;;6.75;100.00
66681;BME280;73718;51.366;12.350;2023-11-21T02:13:17;99699.41;;;6.77;100.00
66681;BME280;73718;51.366;12.350;2023-11-21T02:15:43;99706.34;;;6.76;100.00
66681;BME280;73718;51.366;12.350;2023-11-21T02:18:08;99706.34;;;6.79;100.00
66681;BME280;73718;51.366;12.350;2023-11-21T02:20:36;99703.72;;;6.84;100.00
66681;BME280;73718;51.366;12.350;2023-11-21T02:23:04;99711.53;;;6.84;100.00
66681;BME280;73718;51.366;12.350;2023-11-21T02:25:31;99709.78;;;6.84;100.00
66681;BME280;73718;51.366;12.350;2023-11-21T02:28:01;99695.09;;;6.83;100.00
66681;BME280;73718;51.366;12.350;2023-11-21T02:30:27;99700.28;;;6.83;100.00
66681;BME280;73718;51.366;12.350;2023-11-21T02:32:53;99697.66;;;6.80;100.00
66681;BME280;73718;51.366;12.350;2023-11-21T02:35:20;99706.31;;;6.86;100.00
66681;BME280;73718;51.366;12.350;2023-11-21T02:37:50;99706.31;;;6.84;100.00
66681;BME280;73718;51.366;12.350;2023-11-21T02:40:16;99711.53;;;6.84;100.00
66681;BME280;73718;51.366;12.350;2023-11-21T02:42:46;99705.44;;;6.82;100.00
66681;BME280;73718;51.366;12.350;2023-11-21T02:45:24;99698.53;;;6.76;100.00
66681;BME280;73718;51.366;12.350;2023-11-21T02:47:49;99695.94;;;6.69;100.00
66681;BME280;73718;51.366;12.350;2023-11-21T02:50:15;99700.25;;;6.59;100.00
66681;BME280;73718;51.366;12.350;2023-11-21T02:52:40;99695.09;;;6.50;100.00
66681;BME280;73718;51.366;12.350;2023-11-21T02:55:06;99700.25;;;6.44;100.00
66681;BME280;73718;51.366;12.350;2023-11-21T02:57:33;99700.25;;;6.39;100.00
66681;BME280;73718;51.366;12.350;2023-11-21T02:59:59;99702.84;;;6.36;100.00
66681;BME280;73718;51.366;12.350;2023-11-21T03:02:25;99696.81;;;6.34;100.00
66681;BME280;73718;51.366;12.350;2023-11-21T03:04:51;99696.78;;;6.32;100.00
66681;BME280;73718;51.366;12.350;2023-11-21T03:07:17;99699.38;;;6.32;100.00
66681;BME280;73718;51.366;12.350;2023-11-21T03:09:45;99694.19;;;6.32;100.00
66681;BME280;73718;51.366;12.350;2023-11-21T03:12:11;99695.94;;;6.33;100.00
66681;BME280;73718;51.366;12.350;2023-11-21T03:14:38;99694.19;;;6.37;100.00
66681;BME280;73718;51.366;12.350;2023-11-21T03:17:03;99695.06;;;6.39;100.00
66681;BME280;73718;51.366;12.350;2023-11-21T03:19:30;99696.81;;;6.39;100.00
66681;BME280;73718;51.366;12.350;2023-11-21T03:21:55;99696.81;;;6.42;100.00
66681;BME280;73718;51.366;12.350;2023-11-21T03:24:21;99701.13;;;6.46;100.00
66681;BME280;73718;51.366;12.350;2023-11-21T03:26:48;99696.78;;;6.48;100.00
66681;BME280;73718;51.366;12.350;2023-11-21T03:29:13;99702.84;;;6.51;100.00
66681;BME280;73718;51.366;12.350;2023-11-21T03:31:40;99700.28;;;6.53;100.00
66681;BME280;73718;51.366;12.350;2023-11-21T03:34:05;99703.75;;;6.56;100.00
66681;BME280;73718;51.366;12.350;2023-11-21T03:36:31;99706.31;;;6.58;100.00
66681;BME280;73718;51.366;12.350;2023-11-21T03:38:57;99710.66;;;6.61;100.00
66681;BME280;73718;51.366;12.350;2023-11-21T03:41:22;99723.63;;;6.62;100.00
66681;BME280;73718;51.366;12.350;2023-11-21T03:43:47;99714.13;;;6.63;100.00
66681;BME280;73718;51.366;12.350;2023-11-21T03:46:13;99711.50;;;6.63;100.00
66681;BME280;73718;51.366;12.350;2023-11-21T03:48:38;99721.91;;;6.64;100.00
66681;BME280;73718;51.366;12.350;2023-11-21T03:51:04;99717.56;;;6.63;100.00
66681;BME280;73718;51.366;12.350;2023-11-21T03:53:29;99714.97;;;6.62;100.00
66681;BME280;73718;51.366;12.350;2023-11-21T03:55:55;99721.91;;;6.61;100.00
66681;BME280;73718;51.366;12.350;2023-11-21T03:58:20;99714.97;;;6.60;100.00
66681;BME280;73718;51.366;12.350;2023-11-21T04:00:47;99730.56;;;6.63;100.00
66681;BME280;73718;51.366;12.350;2023-11-21T04:03:14;99734.88;;;6.66;100.00
66681;BME280;73718;51.366;12.350;2023-11-21T04:05:40;99726.22;;;6.67;100.00
66681;BME280;73718;51.366;12.350;2023-11-21T04:08:06;99733.16;;;6.69;100.00
66681;BME280;73718;51.366;12.350;2023-11-21T04:10:31;99734.88;;;6.70;100.00
66681;BME280;73718;51.366;12.350;2023-11-21T04:12:57;99738.34;;;6.74;100.00
66681;BME280;73718;51.366;12.350;2023-11-21T04:15:22;99733.16;;;6.77;100.00
66681;BME280;73718;51.366;12.350;2023-11-21T04:17:48;99740.94;;;6.78;100.00
66681;BME280;73718;51.366;12.350;2023-11-21T04:20:13;99738.38;;;6.80;100.00
66681;BME280;73718;51.366;12.350;2023-11-21T04:22:39;99742.66;;;6.86;100.00
66681;BME280;73718;51.366;12.350;2023-11-21T04:25:08;99740.09;;;6.84;100.00
66681;BME280;73718;51.366;12.350;2023-11-21T04:27:34;99740.09;;;6.87;100.00
66681;BME280;73718;51.366;12.350;2023-11-21T04:29:59;99747.00;;;6.90;100.00
66681;BME280;73718;51.366;12.350;2023-11-21T04:32:25;99749.59;;;6.93;100.00
66681;BME280;73718;51.366;12.350;2023-11-21T04:34:50;99747.00;;;6.93;100.00
66681;BME280;73718;51.366;12.350;2023-11-21T04:37:15;99753.06;;;6.92;100.00
66681;BME280;73718;51.366;12.350;2023-11-21T04:39:41;99757.38;;;6.93;100.00
66681;BME280;73718;51.366;12.350;2023-11-21T04:42:06;99756.53;;;6.91;100.00
66681;BME280;73718;51.366;12.350;2023-11-21T04:44:31;99766.06;;;6.92;100.00
66681;BME280;73718;51.366;12.350;2023-11-21T04:46:57;99762.59;;;6.96;100.00
66681;BME280;73718;51.366;12.350;2023-11-21T04:49:22;99766.91;;;6.97;100.00
66681;BME280;73718;51.366;12.350;2023-11-21T04:51:47;99761.72;;;6.97;100.00
66681;BME280;73718;51.366;12.350;2023-11-21T04:54:13;99755.66;;;6.99;100.00
66681;BME280;73718;51.366;12.350;2023-11-21T04:56:38;99766.91;;;7.00;100.00
66681;BME280;73718;51.366;12.350;2023-11-21T04:59:04;99766.91;;;7.03;100.00
66681;BME280;73718;51.366;12.350;2023-11-21T05:01:29;99772.09;;;7.09;100.00
66681;BME280;73718;51.366;12.350;2023-11-21T05:03:55;99768.66;;;7.07;100.00
66681;BME280;73718;51.366;12.350;2023-11-21T05:06:22;99772.13;;;7.11;100.00
66681;BME280;73718;51.366;12.350;2023-11-21T05:08:49;99774.69;;;7.12;100.00
66681;BME280;73718;51.366;12.350;2023-11-21T05:11:24;99773.84;;;7.15;100.00
66681;BME280;73718;51.366;12.350;2023-11-21T05:13:49;99776.44;;;7.10;100.00
66681;BME280;73718;51.366;12.350;2023-11-21T05:16:15;99777.31;;;7.14;100.00
66681;BME280;73718;51.366;12.350;2023-11-21T05:18:40;99785.97;;;7.14;100.00
66681;BME280;73718;51.366;12.350;2023-11-21T05:21:06;99789.44;;;7.15;100.00
66681;BME280;73718;51.366;12.350;2023-11-21T05:23:32;99795.50;;;7.14;100.00
66681;BME280;73718;51.366;12.350;2023-11-21T05:25:59;99792.88;;;7.15;100.00
66681;BME280;73718;51.366;12.350;2023-11-21T05:28:24;99790.31;;;7.14;100.00
66681;BME280;73718;51.366;12.350;2023-11-21T05:30:50;99796.34;;;7.11;100.00
66681;BME280;73718;51.366;12.350;2023-11-21T05:33:16;99794.63;;;7.12;100.00
66681;BME280;73718;51.366;12.350;2023-11-21T05:35:41;99792.88;;;7.09;100.00
66681;BME280;73718;51.366;12.350;2023-11-21T05:38:07;99794.63;;;7.04;100.00
66681;BME280;73718;51.366;12.350;2023-11-21T05:40:32;99796.34;;;7.02;100.00
66681;BME280;73718;51.366;12.350;2023-11-21T05:42:58;99801.53;;;7.02;100.00
66681;BME280;73718;51.366;12.350;2023-11-21T05:45:24;99800.69;;;7.01;100.00
66681;BME280;73718;51.366;12.350;2023-11-21T05:47:49;99800.69;;;7.04;100.00
66681;BME280;73718;51.366;12.350;2023-11-21T05:50:16;99808.50;;;7.06;100.00
66681;BME280;73718;51.366;12.350;2023-11-21T05:52:46;99813.69;;;7.03;100.00
66681;BME280;73718;51.366;12.350;2023-11-21T05:55:12;99806.75;;;6.99;100.00
66681;BME280;73718;51.366;12.350;2023-11-21T05:57:39;99799.81;;;6.96;100.00
66681;BME280;73718;51.366;12.350;2023-11-21T06:00:09;99806.75;;;6.93;100.00
66681;BME280;73718;51.366;12.350;2023-11-21T06:02:51;99807.63;;;6.87;100.00
66681;BME280;73718;51.366;12.350;2023-11-21T06:05:21;99817.16;;;6.91;100.00
66681;BME280;73718;51.366;12.350;2023-11-21T06:07:49;99807.63;;;6.92;100.00
66681;BME280;73718;51.366;12.350;2023-11-21T06:10:14;99807.59;;;6.90;100.00
66681;BME280;73718;51.366;12.350;2023-11-21T06:12:40;99821.47;;;6.89;100.00
66681;BME280;73718;51.366;12.350;2023-11-21T06:15:08;99821.47;;;6.88;100.00
66681;BME280;73718;51.366;12.350;2023-11-21T06:17:35;99825.78;;;6.84;100.00
66681;BME280;73718;51.366;12.350;2023-11-21T06:20:05;99827.53;;;6.83;100.00
66681;BME280;73718;51.366;12.350;2023-11-21T06:22:45;99826.66;;;6.83;100.00
66681;BME280;73718;51.366;12.350;2023-11-21T06:25:11;99828.38;;;6.81;100.00
66681;BME280;73718;51.366;12.350;2023-11-21T06:27:45;99834.41;;;6.78;100.00
66681;BME280;73718;51.366;12.350;2023-11-21T06:30:14;99843.13;;;6.83;100.00
66681;BME280;73718;51.366;12.350;2023-11-21T06:32:40;99848.28;;;6.77;100.00
66681;BME280;73718;51.366;12.350;2023-11-21T06:35:07;99845.69;;;6.77;100.00
66681;BME280;73718;51.366;12.350;2023-11-21T06:37:33;99852.63;;;6.77;100.00
66681;BME280;73718;51.366;12.350;2023-11-21T06:39:59;99852.63;;;6.77;100.00
66681;BME280;73718;51.366;12.350;2023-11-21T06:42:25;99848.28;;;6.76;100.00
66681;BME280;73718;51.366;12.350;2023-11-21T06:44:51;99852.59;;;6.71;100.00
66681;BME280;73718;51.366;12.350;2023-11-21T06:47:18;99853.44;;;6.71;100.00
66681;BME280;73718;51.366;12.350;2023-11-21T06:49:46;99861.25;;;6.70;100.00
66681;BME280;73718;51.366;12.350;2023-11-21T06:52:13;99863.00;;;6.72;100.00
66681;BME280;73718;51.366;12.350;2023-11-21T06:54:38;99863.00;;;6.74;100.00
66681;BME280;73718;51.366;12.350;2023-11-21T06:57:04;99867.31;;;6.73;100.00
66681;BME280;73718;51.366;12.350;2023-11-21T06:59:29;99860.38;;;6.74;100.00
66681;BME280;73718;51.366;12.350;2023-11-21T07:01:55;99863.84;;;6.74;100.00
66681;BME280;73718;51.366;12.350;2023-11-21T07:04:20;99861.25;;;6.79;100.00
66681;BME280;73718;51.366;12.350;2023-11-21T07:06:46;99869.94;;;6.76;100.00
66681;BME280;73718;51.366;12.350;2023-11-21T07:09:11;99882.91;;;6.76;100.00
66681;BME280;73718;51.366;12.350;2023-11-21T07:11:37;99880.31;;;6.78;100.00
66681;BME280;73718;51.366;12.350;2023-11-21T07:14:05;99885.50;;;6.78;100.00
66681;BME280;73718;51.366;12.350;2023-11-21T07:16:36;99887.25;;;6.80;100.00
66681;BME280;73718;51.366;12.350;2023-11-21T07:19:06;99889.00;;;6.83;100.00
66681;BME280;73718;51.366;12.350;2023-11-21T07:21:35;99894.19;;;6.89;100.00
66681;BME280;73718;51.366;12.350;2023-11-21T07:24:02;99892.47;;;6.93;100.00
66681;BME280;73718;51.366;12.350;2023-11-21T07:26:28;99904.59;;;6.95;100.00
66681;BME280;73718;51.366;12.350;2023-11-21T07:28:54;99899.41;;;6.95;100.00
66681;BME280;73718;51.366;12.350;2023-11-21T07:31:19;99900.25;;;6.96;100.00
66681;BME280;73718;51.366;12.350;2023-11-21T07:33:48;99900.25;;;6.96;100.00
66681;BME280;73718;51.366;12.350;2023-11-21T07:36:14;99901.13;;;7.01;100.00
66681;BME280;73718;51.366;12.350;2023-11-21T07:38:41;99905.44;;;7.02;100.00
66681;BME280;73718;51.366;12.350;2023-11-21T07:41:07;99902.00;;;7.01;100.00
66681;BME280;73718;51.366;12.350;2023-11-21T07:43:35;99904.63;;;7.06;100.00
66681;BME280;73718;51.366;12.350;2023-11-21T07:46:02;99908.09;;;7.06;100.00
66681;BME280;73718;51.366;12.350;2023-11-21T07:48:30;99912.41;;;7.09;100.00
66681;BME280;73718;51.366;12.350;2023-11-21T07:50:56;99910.66;;;7.08;100.00
66681;BME280;73718;51.366;12.350;2023-11-21T07:53:22;99915.84;;;7.05;100.00
66681;BME280;73718;51.366;12.350;2023-11-21T07:55:47;99909.81;;;7.06;100.00
66681;BME280;73718;51.366;12.350;2023-11-21T07:58:12;99916.72;;;6.99;100.00
66681;BME280;73718;51.366;12.350;2023-11-21T08:00:38;99925.38;;;6.97;100.00
66681;BME280;73718;51.366;12.350;2023-11-21T08:03:04;99925.38;;;6.95;100.00
66681;BME280;73718;51.366;12.350;2023-11-21T08:05:30;99936.63;;;6.93;100.00
66681;BME280;73718;51.366;12.350;2023-11-21T08:07:55;99943.53;;;6.94;100.00
66681;BME280;73718;51.366;12.350;2023-11-21T08:10:21;99948.72;;;6.94;100.00
66681;BME280;73718;51.366;12.350;2023-11-21T08:12:46;99951.34;;;6.94;100.00
66681;BME280;73718;51.366;12.350;2023-11-21T08:15:13;99946.16;;;6.95;100.00
66681;BME280;73718;51.366;12.350;2023-11-21T08:17:38;99959.16;;;6.95;100.00
66681;BME280;73718;51.366;12.350;2023-11-21T08:20:04;99959.16;;;6.98;100.00
66681;BME280;73718;51.366;12.350;2023-11-21T08:22:29;99958.28;;;7.05;100.00
66681;BME280;73718;51.366;12.350;2023-11-21T08:24:55;99969.56;;;7.09;100.00
66681;BME280;73718;51.366;12.350;2023-11-21T08:27:21;99960.91;;;7.10;100.00
66681;BME280;73718;51.366;12.350;2023-11-21T08:29:46;99970.44;;;7.06;100.00
66681;BME280;73718;51.366;12.350;2023-11-21T08:32:11;99976.47;;;7.04;100.00
66681;BME280;73718;51.366;12.350;2023-11-21T08:34:36;99976.44;;;6.98;100.00
66681;BME280;73718;51.366;12.350;2023-11-21T08:37:02;99972.97;;;6.90;100.00
66681;BME280;73718;51.366;12.350;2023-11-21T08:39:27;99981.63;;;6.84;100.00
66681;BME280;73718;51.366;12.350;2023-11-21T08:41:53;99978.16;;;6.83;100.00
66681;BME280;73718;51.366;12.350;2023-11-21T08:44:18;99982.47;;;6.80;100.00
66681;BME280;73718;51.366;12.350;2023-11-21T08:46:44;99984.22;;;6.79;100.00
66681;BME280;73718;51.366;12.350;2023-11-21T08:49:12;99992.88;;;6.80;100.00
66681;BME280;73718;51.366;12.350;2023-11-21T08:51:39;99994.59;;;6.82;100.00
66681;BME280;73718;51.366;12.350;2023-11-21T08:54:04;99989.41;;;6.79;100.00
66681;BME280;73718;51.366;12.350;2023-11-21T08:56:35;99992.00;;;6.79;100.00
66681;BME280;73718;51.366;12.350;2023-11-21T08:59:01;100004.09;;;6.77;100.00
66681;BME280;73718;51.366;12.350;2023-11-21T09:01:28;100006.69;;;6.77;100.00
66681;BME280;73718;51.366;12.350;2023-11-21T09:03:53;100008.47;;;6.83;100.00
66681;BME280;73718;51.366;12.350;2023-11-21T09:06:18;100014.47;;;6.79;100.00
66681;BME280;73718;51.366;12.350;2023-11-21T09:08:44;100016.22;;;6.81;100.00
66681;BME280;73718;51.366;12.350;2023-11-21T09:11:09;100022.31;;;6.88;100.00
66681;BME280;73718;51.366;12.350;2023-11-21T09:13:35;100021.44;;;6.84;100.00
66681;BME280;73718;51.366;12.350;2023-11-21T09:16:01;100025.78;;;6.90;100.00
66681;BME280;73718;51.366;12.350;2023-11-21T09:18:26;100031.88;;;6.92;100.00
66681;BME280;73718;51.366;12.350;2023-11-21T09:20:51;100038.81;;;6.96;100.00
66681;BME280;73718;51.366;12.350;2023-11-21T09:23:17;100044.00;;;6.96;100.00
66681;BME280;73718;51.366;12.350;2023-11-21T09:25:42;100044.88;;;6.97;100.00
66681;BME280;73718;51.366;12.350;2023-11-21T09:28:11;100041.41;;;6.96;100.00
66681;BME280;73718;51.366;12.350;2023-11-21T09:30:36;100048.34;;;6.99;100.00
66681;BME280;73718;51.366;12.350;2023-11-21T09:33:02;100054.41;;;7.04;100.00
66681;BME280;73718;51.366;12.350;2023-11-21T09:35:27;100053.56;;;7.08;100.00
66681;BME280;73718;51.366;12.350;2023-11-21T09:37:53;100060.47;;;7.04;100.00
66681;BME280;73718;51.366;12.350;2023-11-21T09:40:20;100057.03;;;7.04;100.00
66681;BME280;73718;51.366;12.350;2023-11-21T09:45:17;100060.50;;;7.06;100.00
66681;BME280;73718;51.366;12.350;2023-11-21T09:47:45;100067.38;;;6.96;100.00
66681;BME280;73718;51.366;12.350;2023-11-21T09:50:11;100069.97;;;6.92;100.00
66681;BME280;73718;51.366;12.350;2023-11-21T09:52:47;100074.28;;;6.91;100.00
66681;BME280;73718;51.366;12.350;2023-11-21T09:55:15;100074.22;;;6.77;100.00
66681;BME280;73718;51.366;12.350;2023-11-21T09:57:43;100076.81;;;6.77;100.00
66681;BME280;73718;51.366;12.350;2023-11-21T10:00:10;100078.44;;;6.62;100.00
66681;BME280;73718;51.366;12.350;2023-11-21T10:02:37;100081.91;;;6.62;100.00
66681;BME280;73718;51.366;12.350;2023-11-21T10:05:03;100086.25;;;6.66;100.00
66681;BME280;73718;51.366;12.350;2023-11-21T10:07:28;100093.19;;;6.64;100.00
66681;BME280;73718;51.366;12.350;2023-11-21T10:09:56;100089.72;;;6.61;100.00
66681;BME280;73718;51.366;12.350;2023-11-21T10:12:23;100095.75;;;6.58;100.00
66681;BME280;73718;51.366;12.350;2023-11-21T10:14:49;100096.53;;;6.52;100.00
66681;BME280;73718;51.366;12.350;2023-11-21T10:17:18;100100.03;;;6.54;100.00
66681;BME280;73718;51.366;12.350;2023-11-21T10:19:46;100094.78;;;6.48;100.00
66681;BME280;73718;51.366;12.350;2023-11-21T10:22:12;100102.53;;;6.41;100.00
66681;BME280;73718;51.366;12.350;2023-11-21T10:24:37;100093.00;;;6.38;100.00
66681;BME280;73718;51.366;12.350;2023-11-21T10:27:03;100102.56;;;6.48;100.00
66681;BME280;73718;51.366;12.350;2023-11-21T10:29:29;100111.31;;;6.56;100.00
66681;BME280;73718;51.366;12.350;2023-11-21T10:31:55;100105.22;;;6.56;100.00
66681;BME280;73718;51.366;12.350;2023-11-21T10:34:23;100108.75;;;6.61;100.00
66681;BME280;73718;51.366;12.350;2023-11-21T10:36:48;100110.41;;;6.53;100.00
66681;BME280;73718;51.366;12.350;2023-11-21T10:39:14;100112.97;;;6.48;100.00
66681;BME280;73718;51.366;12.350;2023-11-21T10:41:43;100119.03;;;6.52;100.00
66681;BME280;73718;51.366;12.350;2023-11-21T10:44:08;100118.22;;;6.56;100.00
66681;BME280;73718;51.366;12.350;2023-11-21T10:46:34;100113.88;;;6.53;100.00
66681;BME280;73718;51.366;12.350;2023-11-21T10:49:00;100106.94;;;6.51;100.00
66681;BME280;73718;51.366;12.350;2023-11-21T10:51:25;100106.94;;;6.49;100.00
66681;BME280;73718;51.366;12.350;2023-11-21T10:53:53;100112.94;;;6.44;100.00
66681;BME280;73718;51.366;12.350;2023-11-21T10:56:19;100114.63;;;6.40;100.00
66681;BME280;73718;51.366;12.350;2023-11-21T10:58:51;100116.44;;;6.46;100.00
66681;BME280;73718;51.366;12.350;2023-11-21T11:01:19;100124.25;;;6.50;100.00
66681;BME280;73718;51.366;12.350;2023-11-21T11:03:48;100122.50;;;6.51;100.00
66681;BME280;73718;51.366;12.350;2023-11-21T11:06:14;100119.94;;;6.54;100.00
66681;BME280;73718;51.366;12.350;2023-11-21T11:08:40;100124.25;;;6.50;100.00
66681;BME280;73718;51.366;12.350;2023-11-21T11:11:05;100119.88;;;6.48;100.00
66681;BME280;73718;51.366;12.350;2023-11-21T11:13:31;100127.69;;;6.49;100.00
66681;BME280;73718;51.366;12.350;2023-11-21T11:16:00;100124.28;;;6.53;100.00
66681;BME280;73718;51.366;12.350;2023-11-21T11:18:27;100130.38;;;6.62;100.00
66681;BME280;73718;51.366;12.350;2023-11-21T11:20:53;100132.94;;;6.60;100.00
66681;BME280;73718;51.366;12.350;2023-11-21T11:23:30;100135.50;;;6.55;100.00
66681;BME280;73718;51.366;12.350;2023-11-21T11:28:47;100145.06;;;6.58;100.00
66681;BME280;73718;51.366;12.350;2023-11-21T11:34:17;100145.00;;;6.49;100.00
66681;BME280;73718;51.366;12.350;2023-11-21T11:36:54;100150.13;;;6.44;100.00
66681;BME280;73718;51.366;12.350;2023-11-21T11:39:30;100155.31;;;6.38;100.00
66681;BME280;73718;51.366;12.350;2023-11-21T11:41:57;100156.97;;;6.33;100.00
66681;BME280;73718;51.366;12.350;2023-11-21T11:47:13;100171.50;;;6.11;100.00
66681;BME280;73718;51.366;12.350;2023-11-21T11:49:54;100160.22;;;6.09;100.00
66681;BME280;73718;51.366;12.350;2023-11-21T11:54:58;100173.97;;;6.02;100.00
66681;BME280;73718;51.366;12.350;2023-11-21T11:57:24;100180.00;;;5.98;100.00
66681;BME280;73718;51.366;12.350;2023-11-21T12:02:52;100183.34;;;5.89;100.00
66681;BME280;73718;51.366;12.350;2023-11-21T12:05:18;100198.84;;;5.84;100.00
66681;BME280;73718;51.366;12.350;2023-11-21T12:07:45;100199.53;;;5.71;100.00
66681;BME280;73718;51.366;12.350;2023-11-21T12:10:17;100190.03;;;5.69;100.00
66681;BME280;73718;51.366;12.350;2023-11-21T12:12:49;100193.41;;;5.65;100.00
66681;BME280;73718;51.366;12.350;2023-11-21T12:15:15;100194.31;;;5.65;100.00
66681;BME280;73718;51.366;12.350;2023-11-21T12:17:41;100196.91;;;5.65;100.00
66681;BME280;73718;51.366;12.350;2023-11-21T12:20:07;100205.50;;;5.64;100.00
66681;BME280;73718;51.366;12.350;2023-11-21T12:23:00;100211.53;;;5.61;100.00
66681;BME280;73718;51.366;12.350;2023-11-21T12:25:25;100216.66;;;5.57;100.00
66681;BME280;73718;51.366;12.350;2023-11-21T12:27:54;100231.13;;;5.40;100.00
66681;BME280;73718;51.366;12.350;2023-11-21T12:30:20;100233.66;;;5.35;100.00
66681;BME280;73718;51.366;12.350;2023-11-21T12:32:53;100237.06;;;5.32;100.00
66681;BME280;73718;51.366;12.350;2023-11-21T12:35:19;100241.41;;;5.33;100.00
66681;BME280;73718;51.366;12.350;2023-11-21T12:37:45;100243.91;;;5.27;100.00
66681;BME280;73718;51.366;12.350;2023-11-21T12:40:10;100242.03;;;5.17;100.00
66681;BME280;73718;51.366;12.350;2023-11-21T12:42:39;100248.75;;;5.04;100.00
66681;BME280;73718;51.366;12.350;2023-11-21T12:45:09;100258.09;;;4.95;100.00
66681;BME280;73718;51.366;12.350;2023-11-21T12:47:41;100266.59;;;4.87;100.00
66681;BME280;73718;51.366;12.350;2023-11-21T12:50:06;100269.19;;;4.87;100.00
66681;BME280;73718;51.366;12.350;2023-11-21T12:52:32;100263.06;;;4.81;100.00
66681;BME280;73718;51.366;12.350;2023-11-21T12:54:57;100263.94;;;4.83;100.00
66681;BME280;73718;51.366;12.350;2023-11-21T12:57:25;100270.84;;;4.81;100.00
66681;BME280;73718;51.366;12.350;2023-11-21T12:59:52;100276.09;;;4.85;100.00
66681;BME280;73718;51.366;12.350;2023-11-21T13:02:19;100275.38;;;4.96;100.00